sensor_id;sensor_type;location;lat;lon;timestamp;temperature;humidity
25300;DHT22;13241;51.208;4.432;2024-01-16T00:02:20;3.20;99.90
25300;DHT22;13241;51.208;4.432;2024-01-16T00:04:49;3.20;99.90
25300;DHT22;13241;51.208;4.432;2024-01-16T00:07:16;3.30;99.90
25300;DHT22;13241;51.208;4.432;2024-01-16T00:09:43;3.20;99.90
25300;DHT22;13241;51.208;4.432;2024-01-16T00:12:10;3.30;99.90
25300;DHT22;13241;51.208;4.432;2024-01-16T00:14:37;3.30;99.90
25300;DHT22;13241;51.208;4.432;2024-01-16T00:17:05;3.30;99.90
25300;DHT22;13241;51.208;4.432;2024-01-16T00:19:32;3.30;99.90
25300;DHT22;13241;51.208;4.432;2024-01-16T00:21:59;3.30;99.90
25300;DHT22;13241;51.208;4.432;2024-01-16T00:24:27;3.30;99.90
25300;DHT22;13241;51.208;4.432;2024-01-16T00:26:54;3.30;99.90
25300;DHT22;13241;51.208;4.432;2024-01-16T00:29:21;3.30;99.90
25300;DHT22;13241;51.208;4.432;2024-01-16T00:31:49;3.20;99.90
25300;DHT22;13241;51.208;4.432;2024-01-16T00:34:18;3.30;99.90
25300;DHT22;13241;51.208;4.432;2024-01-16T00:36:47;3.30;99.90
25300;DHT22;13241;51.208;4.432;2024-01-16T00:39:18;3.20;99.90
25300;DHT22;13241;51.208;4.432;2024-01-16T00:41:45;3.30;99.90
25300;DHT22;13241;51.208;4.432;2024-01-16T00:44:12;3.30;99.90
25300;DHT22;13241;51.208;4.432;2024-01-16T00:46:40;3.30;99.90
25300;DHT22;13241;51.208;4.432;2024-01-16T00:49:10;3.40;99.90
25300;DHT22;13241;51.208;4.432;2024-01-16T00:51:37;3.40;99.90
25300;DHT22;13241;51.208;4.432;2024-01-16T00:54:06;3.40;99.90
25300;DHT22;13241;51.208;4.432;2024-01-16T00:56:35;3.30;99.90
25300;DHT22;13241;51.208;4.432;2024-01-16T00:59:03;3.40;99.90
25300;DHT22;13241;51.208;4.432;2024-01-16T01:01:30;3.30;99.90
25300;DHT22;13241;51.208;4.432;2024-01-16T01:03:57;3.10;99.90
25300;DHT22;13241;51.208;4.432;2024-01-16T01:06:25;3.20;99.90
25300;DHT22;13241;51.208;4.432;2024-01-16T01:08:52;3.40;99.90
25300;DHT22;13241;51.208;4.432;2024-01-16T01:11:19;3.40;99.90
25300;DHT22;13241;51.208;4.432;2024-01-16T01:13:46;3.30;99.90
25300;DHT22;13241;51.208;4.432;2024-01-16T01:16:13;3.10;99.90
25300;DHT22;13241;51.208;4.432;2024-01-16T01:18:40;3.00;99.90
25300;DHT22;13241;51.208;4.432;2024-01-16T01:21:08;3.00;99.90
25300;DHT22;13241;51.208;4.432;2024-01-16T01:23:35;3.20;99.90
25300;DHT22;13241;51.208;4.432;2024-01-16T01:26:02;3.00;99.90
25300;DHT22;13241;51.208;4.432;2024-01-16T01:28:31;2.90;99.90
25300;DHT22;13241;51.208;4.432;2024-01-16T01:30:58;2.90;99.90
25300;DHT22;13241;51.208;4.432;2024-01-16T01:33:25;2.90;99.90
25300;DHT22;13241;51.208;4.432;2024-01-16T01:35:52;2.90;99.90
25300;DHT22;13241;51.208;4.432;2024-01-16T01:38:21;3.00;99.90
25300;DHT22;13241;51.208;4.432;2024-01-16T01:40:48;3.00;99.90
25300;DHT22;13241;51.208;4.432;2024-01-16T01:43:22;3.00;99.90
25300;DHT22;13241;51.208;4.432;2024-01-16T01:48:20;3.00;99.90
25300;DHT22;13241;51.208;4.432;2024-01-16T01:50:48;2.90;99.90
25300;DHT22;13241;51.208;4.432;2024-01-16T01:53:15;2.80;99.90
25300;DHT22;13241;51.208;4.432;2024-01-16T01:55:42;2.70;99.90
25300;DHT22;13241;51.208;4.432;2024-01-16T01:58:09;2.60;99.90
25300;DHT22;13241;51.208;4.432;2024-01-16T02:00:36;2.50;99.90
25300;DHT22;13241;51.208;4.432;2024-01-16T02:03:06;2.60;99.90
25300;DHT22;13241;51.208;4.432;2024-01-16T02:05:34;2.50;99.90
25300;DHT22;13241;51.208;4.432;2024-01-16T02:08:01;2.60;99.90
25300;DHT22;13241;51.208;4.432;2024-01-16T02:10:30;2.50;99.90
25300;DHT22;13241;51.208;4.432;2024-01-16T02:12:59;2.50;99.90
25300;DHT22;13241;51.208;4.432;2024-01-16T02:15:26;2.50;99.90
25300;DHT22;13241;51.208;4.432;2024-01-16T02:17:53;2.40;99.90
25300;DHT22;13241;51.208;4.432;2024-01-16T02:20:20;2.40;99.90
25300;DHT22;13241;51.208;4.432;2024-01-16T02:22:51;2.30;99.90
25300;DHT22;13241;51.208;4.432;2024-01-16T02:25:20;2.40;99.90
25300;DHT22;13241;51.208;4.432;2024-01-16T02:27:47;2.30;99.90
25300;DHT22;13241;51.208;4.432;2024-01-16T02:30:14;2.30;99.90
25300;DHT22;13241;51.208;4.432;2024-01-16T02:32:41;2.20;99.90
25300;DHT22;13241;51.208;4.432;2024-01-16T02:35:09;2.20;99.90
25300;DHT22;13241;51.208;4.432;2024-01-16T02:37:37;2.40;99.90
25300;DHT22;13241;51.208;4.432;2024-01-16T02:40:04;2.10;99.90
25300;DHT22;13241;51.208;4.432;2024-01-16T02:42:33;2.10;99.90
25300;DHT22;13241;51.208;4.432;2024-01-16T02:45:00;2.00;99.90
25300;DHT22;13241;51.208;4.432;2024-01-16T02:47:27;2.00;99.90
25300;DHT22;13241;51.208;4.432;2024-01-16T02:49:54;2.00;99.90
25300;DHT22;13241;51.208;4.432;2024-01-16T02:52:21;2.10;99.90
25300;DHT22;13241;51.208;4.432;2024-01-16T02:54:48;2.10;99.90
25300;DHT22;13241;51.208;4.432;2024-01-16T02:57:14;2.00;99.90
25300;DHT22;13241;51.208;4.432;2024-01-16T02:59:45;1.90;99.90
25300;DHT22;13241;51.208;4.432;2024-01-16T03:02:12;2.00;99.90
25300;DHT22;13241;51.208;4.432;2024-01-16T03:04:40;1.90;99.90
25300;DHT22;13241;51.208;4.432;2024-01-16T03:07:07;1.90;99.90
25300;DHT22;13241;51.208;4.432;2024-01-16T03:09:34;1.90;99.90
25300;DHT22;13241;51.208;4.432;2024-01-16T03:12:02;1.80;99.90
25300;DHT22;13241;51.208;4.432;2024-01-16T03:14:29;1.80;99.90
25300;DHT22;13241;51.208;4.432;2024-01-16T03:17:03;1.80;99.90
25300;DHT22;13241;51.208;4.432;2024-01-16T03:19:31;1.90;99.90
25300;DHT22;13241;51.208;4.432;2024-01-16T03:21:58;1.70;99.90
25300;DHT22;13241;51.208;4.432;2024-01-16T03:24:26;1.70;99.90
25300;DHT22;13241;51.208;4.432;2024-01-16T03:26:53;1.70;99.90
25300;DHT22;13241;51.208;4.432;2024-01-16T03:29:20;1.70;99.90
25300;DHT22;13241;51.208;4.432;2024-01-16T03:31:49;1.70;99.90
25300;DHT22;13241;51.208;4.432;2024-01-16T03:34:16;1.70;99.90
25300;DHT22;13241;51.208;4.432;2024-01-16T03:36:45;1.70;99.90
25300;DHT22;13241;51.208;4.432;2024-01-16T03:39:12;1.70;99.90
25300;DHT22;13241;51.208;4.432;2024-01-16T03:41:39;1.60;99.90
25300;DHT22;13241;51.208;4.432;2024-01-16T03:44:06;1.60;99.90
25300;DHT22;13241;51.208;4.432;2024-01-16T03:46:33;1.50;99.90
25300;DHT22;13241;51.208;4.432;2024-01-16T03:49:00;1.60;99.90
25300;DHT22;13241;51.208;4.432;2024-01-16T03:51:27;1.60;99.90
25300;DHT22;13241;51.208;4.432;2024-01-16T03:53:54;1.50;99.90
25300;DHT22;13241;51.208;4.432;2024-01-16T03:56:22;1.50;99.90
25300;DHT22;13241;51.208;4.432;2024-01-16T03:58:49;1.60;99.90
25300;DHT22;13241;51.208;4.432;2024-01-16T04:01:16;1.50;99.90
25300;DHT22;13241;51.208;4.432;2024-01-16T04:03:43;1.50;99.90
25300;DHT22;13241;51.208;4.432;2024-01-16T04:06:17;1.70;99.90
25300;DHT22;13241;51.208;4.432;2024-01-16T04:08:45;1.50;99.90
25300;DHT22;13241;51.208;4.432;2024-01-16T04:11:13;1.50;99.90
25300;DHT22;13241;51.208;4.432;2024-01-16T04:13:41;1.40;99.90
25300;DHT22;13241;51.208;4.432;2024-01-16T04:16:09;1.50;99.90
25300;DHT22;13241;51.208;4.432;2024-01-16T04:18:42;1.50;99.90
25300;DHT22;13241;51.208;4.432;2024-01-16T04:21:10;1.40;99.90
25300;DHT22;13241;51.208;4.432;2024-01-16T04:23:37;1.50;99.90
25300;DHT22;13241;51.208;4.432;2024-01-16T04:26:05;1.50;99.90
25300;DHT22;13241;51.208;4.432;2024-01-16T04:28:32;1.50;99.90
25300;DHT22;13241;51.208;4.432;2024-01-16T04:31:00;1.60;99.90
25300;DHT22;13241;51.208;4.432;2024-01-16T04:33:27;1.40;99.90
25300;DHT22;13241;51.208;4.432;2024-01-16T04:35:55;1.40;99.90
25300;DHT22;13241;51.208;4.432;2024-01-16T04:38:22;1.40;99.90
25300;DHT22;13241;51.208;4.432;2024-01-16T04:40:50;1.40;99.90
25300;DHT22;13241;51.208;4.432;2024-01-16T04:43:17;1.40;99.90
25300;DHT22;13241;51.208;4.432;2024-01-16T04:45:44;1.30;99.90
25300;DHT22;13241;51.208;4.432;2024-01-16T04:48:11;1.30;99.90
25300;DHT22;13241;51.208;4.432;2024-01-16T04:50:38;1.30;99.90
25300;DHT22;13241;51.208;4.432;2024-01-16T04:53:05;1.30;99.90
25300;DHT22;13241;51.208;4.432;2024-01-16T04:55:32;1.30;99.90
25300;DHT22;13241;51.208;4.432;2024-01-16T04:57:59;1.30;99.90
25300;DHT22;13241;51.208;4.432;2024-01-16T05:00:27;1.30;99.90
25300;DHT22;13241;51.208;4.432;2024-01-16T05:02:54;1.30;99.90
25300;DHT22;13241;51.208;4.432;2024-01-16T05:05:23;1.20;99.90
25300;DHT22;13241;51.208;4.432;2024-01-16T05:07:56;1.20;99.90
25300;DHT22;13241;51.208;4.432;2024-01-16T05:10:23;1.10;99.90
25300;DHT22;13241;51.208;4.432;2024-01-16T05:12:51;1.30;99.90
25300;DHT22;13241;51.208;4.432;2024-01-16T05:15:18;1.30;99.90
25300;DHT22;13241;51.208;4.432;2024-01-16T05:17:45;1.10;99.90
25300;DHT22;13241;51.208;4.432;2024-01-16T05:20:12;1.10;99.90
25300;DHT22;13241;51.208;4.432;2024-01-16T05:22:39;1.00;99.90
25300;DHT22;13241;51.208;4.432;2024-01-16T05:25:07;1.00;99.90
25300;DHT22;13241;51.208;4.432;2024-01-16T05:27:34;0.90;99.90
25300;DHT22;13241;51.208;4.432;2024-01-16T05:30:01;1.10;99.90
25300;DHT22;13241;51.208;4.432;2024-01-16T05:32:28;1.00;99.90
25300;DHT22;13241;51.208;4.432;2024-01-16T05:34:55;0.90;99.90
25300;DHT22;13241;51.208;4.432;2024-01-16T05:37:24;0.90;99.90
25300;DHT22;13241;51.208;4.432;2024-01-16T05:39:51;0.90;99.90
25300;DHT22;13241;51.208;4.432;2024-01-16T05:42:18;0.90;99.90
25300;DHT22;13241;51.208;4.432;2024-01-16T05:44:45;1.00;99.90
25300;DHT22;13241;51.208;4.432;2024-01-16T05:47:12;0.90;99.90
25300;DHT22;13241;51.208;4.432;2024-01-16T05:49:40;0.90;99.90
25300;DHT22;13241;51.208;4.432;2024-01-16T05:52:09;0.90;99.90
25300;DHT22;13241;51.208;4.432;2024-01-16T05:54:37;0.90;99.90
25300;DHT22;13241;51.208;4.432;2024-01-16T05:57:04;1.10;99.90
25300;DHT22;13241;51.208;4.432;2024-01-16T05:59:32;0.90;99.90
25300;DHT22;13241;51.208;4.432;2024-01-16T06:01:59;0.90;99.90
25300;DHT22;13241;51.208;4.432;2024-01-16T06:04:26;1.00;99.90
25300;DHT22;13241;51.208;4.432;2024-01-16T06:06:53;0.90;99.90
25300;DHT22;13241;51.208;4.432;2024-01-16T06:09:20;1.00;99.90
25300;DHT22;13241;51.208;4.432;2024-01-16T06:11:47;1.00;99.90
25300;DHT22;13241;51.208;4.432;2024-01-16T06:14:15;1.00;99.90
25300;DHT22;13241;51.208;4.432;2024-01-16T06:16:49;0.90;99.90
25300;DHT22;13241;51.208;4.432;2024-01-16T06:19:17;1.00;99.90
25300;DHT22;13241;51.208;4.432;2024-01-16T06:21:44;1.10;99.90
25300;DHT22;13241;51.208;4.432;2024-01-16T06:24:11;0.90;99.90
25300;DHT22;13241;51.208;4.432;2024-01-16T06:26:40;1.00;99.90
25300;DHT22;13241;51.208;4.432;2024-01-16T06:29:07;1.00;99.90
25300;DHT22;13241;51.208;4.432;2024-01-16T06:31:43;1.00;99.90
25300;DHT22;13241;51.208;4.432;2024-01-16T06:34:10;1.10;99.90
25300;DHT22;13241;51.208;4.432;2024-01-16T06:36:37;1.10;99.90
25300;DHT22;13241;51.208;4.432;2024-01-16T06:39:04;1.20;99.90
25300;DHT22;13241;51.208;4.432;2024-01-16T06:41:31;1.30;99.90
25300;DHT22;13241;51.208;4.432;2024-01-16T06:43:58;1.40;99.90
25300;DHT22;13241;51.208;4.432;2024-01-16T06:46:26;1.30;99.90
25300;DHT22;13241;51.208;4.432;2024-01-16T06:48:53;1.40;99.90
25300;DHT22;13241;51.208;4.432;2024-01-16T06:51:20;1.40;99.90
25300;DHT22;13241;51.208;4.432;2024-01-16T06:53:47;1.50;99.90
25300;DHT22;13241;51.208;4.432;2024-01-16T06:56:14;1.50;99.90
25300;DHT22;13241;51.208;4.432;2024-01-16T06:58:41;1.70;99.90
25300;DHT22;13241;51.208;4.432;2024-01-16T07:01:09;1.60;99.90
25300;DHT22;13241;51.208;4.432;2024-01-16T07:03:36;1.70;99.90
25300;DHT22;13241;51.208;4.432;2024-01-16T07:06:05;1.90;99.90
25300;DHT22;13241;51.208;4.432;2024-01-16T07:08:32;1.60;99.90
25300;DHT22;13241;51.208;4.432;2024-01-16T07:11:00;1.70;99.90
25300;DHT22;13241;51.208;4.432;2024-01-16T07:13:27;1.70;99.90
25300;DHT22;13241;51.208;4.432;2024-01-16T07:15:54;1.70;99.90
25300;DHT22;13241;51.208;4.432;2024-01-16T07:18:21;1.70;99.90
25300;DHT22;13241;51.208;4.432;2024-01-16T07:20:48;1.80;99.90
25300;DHT22;13241;51.208;4.432;2024-01-16T07:23:15;1.80;99.90
25300;DHT22;13241;51.208;4.432;2024-01-16T07:25:42;1.80;99.90
25300;DHT22;13241;51.208;4.432;2024-01-16T07:28:09;1.70;99.90
25300;DHT22;13241;51.208;4.432;2024-01-16T07:30:36;1.80;99.90
25300;DHT22;13241;51.208;4.432;2024-01-16T07:33:04;1.70;99.90
25300;DHT22;13241;51.208;4.432;2024-01-16T07:35:32;1.60;99.90
25300;DHT22;13241;51.208;4.432;2024-01-16T07:38:00;1.80;99.90
25300;DHT22;13241;51.208;4.432;2024-01-16T07:40:31;1.60;99.90
25300;DHT22;13241;51.208;4.432;2024-01-16T07:42:58;1.60;99.90
25300;DHT22;13241;51.208;4.432;2024-01-16T07:45:51;1.60;99.90
25300;DHT22;13241;51.208;4.432;2024-01-16T07:48:22;1.60;99.90
25300;DHT22;13241;51.208;4.432;2024-01-16T07:50:50;1.90;99.90
25300;DHT22;13241;51.208;4.432;2024-01-16T07:53:19;1.60;99.90
25300;DHT22;13241;51.208;4.432;2024-01-16T07:55:46;1.70;99.90
25300;DHT22;13241;51.208;4.432;2024-01-16T07:58:13;1.80;99.90
25300;DHT22;13241;51.208;4.432;2024-01-16T08:00:40;1.80;99.90
25300;DHT22;13241;51.208;4.432;2024-01-16T08:03:09;1.60;99.90
25300;DHT22;13241;51.208;4.432;2024-01-16T08:05:39;1.80;99.90
25300;DHT22;13241;51.208;4.432;2024-01-16T08:08:09;1.60;99.90
25300;DHT22;13241;51.208;4.432;2024-01-16T08:10:37;1.70;99.90
25300;DHT22;13241;51.208;4.432;2024-01-16T08:13:04;1.60;99.90
25300;DHT22;13241;51.208;4.432;2024-01-16T08:15:31;1.70;99.90
25300;DHT22;13241;51.208;4.432;2024-01-16T08:17:58;1.70;99.90
25300;DHT22;13241;51.208;4.432;2024-01-16T08:20:25;1.70;99.90
25300;DHT22;13241;51.208;4.432;2024-01-16T08:22:52;1.70;99.90
25300;DHT22;13241;51.208;4.432;2024-01-16T08:25:20;1.70;99.90
25300;DHT22;13241;51.208;4.432;2024-01-16T08:27:47;1.70;99.90
25300;DHT22;13241;51.208;4.432;2024-01-16T08:30:14;1.70;99.90
25300;DHT22;13241;51.208;4.432;2024-01-16T08:32:41;1.70;99.90
25300;DHT22;13241;51.208;4.432;2024-01-16T08:35:08;1.70;99.90
25300;DHT22;13241;51.208;4.432;2024-01-16T08:37:36;1.70;99.90
25300;DHT22;13241;51.208;4.432;2024-01-16T08:40:03;1.70;99.90
25300;DHT22;13241;51.208;4.432;2024-01-16T08:42:31;1.70;99.90
25300;DHT22;13241;51.208;4.432;2024-01-16T08:45:00;1.70;99.90
25300;DHT22;13241;51.208;4.432;2024-01-16T08:47:28;1.70;99.90
25300;DHT22;13241;51.208;4.432;2024-01-16T08:49:56;1.70;99.90
25300;DHT22;13241;51.208;4.432;2024-01-16T08:52:22;1.70;99.90
25300;DHT22;13241;51.208;4.432;2024-01-16T08:54:49;1.70;99.90
25300;DHT22;13241;51.208;4.432;2024-01-16T08:57:16;1.70;99.90
25300;DHT22;13241;51.208;4.432;2024-01-16T08:59:44;1.70;99.90
25300;DHT22;13241;51.208;4.432;2024-01-16T09:02:12;2.00;99.90
25300;DHT22;13241;51.208;4.432;2024-01-16T09:04:39;1.90;99.90
25300;DHT22;13241;51.208;4.432;2024-01-16T09:07:06;1.90;99.90
25300;DHT22;13241;51.208;4.432;2024-01-16T09:09:33;2.00;99.90
25300;DHT22;13241;51.208;4.432;2024-01-16T09:12:02;2.00;99.90
25300;DHT22;13241;51.208;4.432;2024-01-16T09:14:30;2.10;99.90
25300;DHT22;13241;51.208;4.432;2024-01-16T09:16:57;2.10;99.90
25300;DHT22;13241;51.208;4.432;2024-01-16T09:19:25;2.20;99.90
25300;DHT22;13241;51.208;4.432;2024-01-16T09:21:53;2.20;99.90
25300;DHT22;13241;51.208;4.432;2024-01-16T09:24:20;2.30;99.90
25300;DHT22;13241;51.208;4.432;2024-01-16T09:26:47;2.20;99.90
25300;DHT22;13241;51.208;4.432;2024-01-16T09:29:14;2.30;99.90
25300;DHT22;13241;51.208;4.432;2024-01-16T09:31:41;2.30;99.90
25300;DHT22;13241;51.208;4.432;2024-01-16T09:34:08;2.20;99.90
25300;DHT22;13241;51.208;4.432;2024-01-16T09:36:36;2.10;99.90
25300;DHT22;13241;51.208;4.432;2024-01-16T09:39:07;2.20;99.90
25300;DHT22;13241;51.208;4.432;2024-01-16T09:41:45;2.10;99.90
25300;DHT22;13241;51.208;4.432;2024-01-16T09:44:13;2.00;99.90
25300;DHT22;13241;51.208;4.432;2024-01-16T09:46:44;2.00;99.90
25300;DHT22;13241;51.208;4.432;2024-01-16T09:49:14;2.00;99.90
25300;DHT22;13241;51.208;4.432;2024-01-16T09:51:43;2.00;99.90
25300;DHT22;13241;51.208;4.432;2024-01-16T09:54:10;2.00;99.90
25300;DHT22;13241;51.208;4.432;2024-01-16T09:56:43;2.00;99.90
25300;DHT22;13241;51.208;4.432;2024-01-16T09:59:17;2.00;99.90
25300;DHT22;13241;51.208;4.432;2024-01-16T10:01:45;2.10;99.90
25300;DHT22;13241;51.208;4.432;2024-01-16T10:04:13;2.20;99.90
25300;DHT22;13241;51.208;4.432;2024-01-16T10:06:41;2.30;99.90
25300;DHT22;13241;51.208;4.432;2024-01-16T10:09:13;2.40;99.90
25300;DHT22;13241;51.208;4.432;2024-01-16T10:11:40;2.70;99.90
25300;DHT22;13241;51.208;4.432;2024-01-16T10:14:07;2.60;99.90
25300;DHT22;13241;51.208;4.432;2024-01-16T10:17:03;2.70;99.90
25300;DHT22;13241;51.208;4.432;2024-01-16T10:19:50;2.80;99.90
25300;DHT22;13241;51.208;4.432;2024-01-16T10:22:23;2.80;99.90
25300;DHT22;13241;51.208;4.432;2024-01-16T10:25:08;2.80;99.90
25300;DHT22;13241;51.208;4.432;2024-01-16T10:27:37;3.00;99.90
25300;DHT22;13241;51.208;4.432;2024-01-16T10:30:05;3.10;99.90
25300;DHT22;13241;51.208;4.432;2024-01-16T10:32:37;3.50;99.90
25300;DHT22;13241;51.208;4.432;2024-01-16T10:35:13;4.00;99.90
25300;DHT22;13241;51.208;4.432;2024-01-16T10:37:48;4.30;99.90
25300;DHT22;13241;51.208;4.432;2024-01-16T11:25:12;4.60;99.90
25300;DHT22;13241;51.208;4.432;2024-01-16T11:27:41;4.50;99.90
25300;DHT22;13241;51.208;4.432;2024-01-16T11:30:09;4.40;99.90
25300;DHT22;13241;51.208;4.432;2024-01-16T11:32:39;4.50;99.90
25300;DHT22;13241;51.208;4.432;2024-01-16T11:35:11;4.40;99.90
25300;DHT22;13241;51.208;4.432;2024-01-16T11:37:41;4.50;99.90
25300;DHT22;13241;51.208;4.432;2024-01-16T11:42:50;4.60;99.90
25300;DHT22;13241;51.208;4.432;2024-01-16T11:48:14;4.60;99.90
25300;DHT22;13241;51.208;4.432;2024-01-16T11:50:43;4.60;99.90
25300;DHT22;13241;51.208;4.432;2024-01-16T11:53:11;4.50;99.90
25300;DHT22;13241;51.208;4.432;2024-01-16T12:01:21;4.70;99.90
25300;DHT22;13241;51.208;4.432;2024-01-16T12:04:07;5.10;99.90
25300;DHT22;13241;51.208;4.432;2024-01-16T12:06:36;5.30;99.90
25300;DHT22;13241;51.208;4.432;2024-01-16T12:09:26;5.50;99.90
25300;DHT22;13241;51.208;4.432;2024-01-16T12:12:00;5.30;99.90
25300;DHT22;13241;51.208;4.432;2024-01-16T12:14:31;5.30;99.90
25300;DHT22;13241;51.208;4.432;2024-01-16T12:17:09;5.30;99.90
25300;DHT22;13241;51.208;4.432;2024-01-16T12:19:37;5.20;99.90
25300;DHT22;13241;51.208;4.432;2024-01-16T12:22:08;5.20;99.90
25300;DHT22;13241;51.208;4.432;2024-01-16T12:24:39;5.20;99.90
25300;DHT22;13241;51.208;4.432;2024-01-16T12:27:06;5.10;99.90
25300;DHT22;13241;51.208;4.432;2024-01-16T12:29:35;4.90;99.90
25300;DHT22;13241;51.208;4.432;2024-01-16T12:32:12;4.70;99.90
25300;DHT22;13241;51.208;4.432;2024-01-16T12:34:48;4.50;99.90
25300;DHT22;13241;51.208;4.432;2024-01-16T12:37:16;4.40;99.90
25300;DHT22;13241;51.208;4.432;2024-01-16T12:39:43;4.30;99.90
25300;DHT22;13241;51.208;4.432;2024-01-16T12:42:11;4.30;99.90
25300;DHT22;13241;51.208;4.432;2024-01-16T12:44:39;4.30;99.90
25300;DHT22;13241;51.208;4.432;2024-01-16T12:47:06;4.30;99.90
25300;DHT22;13241;51.208;4.432;2024-01-16T12:49:41;4.30;99.90
25300;DHT22;13241;51.208;4.432;2024-01-16T12:52:22;4.40;99.90
25300;DHT22;13241;51.208;4.432;2024-01-16T12:54:59;4.30;99.90
25300;DHT22;13241;51.208;4.432;2024-01-16T12:57:36;4.20;99.90
25300;DHT22;13241;51.208;4.432;2024-01-16T13:00:25;4.30;99.90
25300;DHT22;13241;51.208;4.432;2024-01-16T13:02:53;4.40;99.90
25300;DHT22;13241;51.208;4.432;2024-01-16T13:05:22;4.40;99.90
25300;DHT22;13241;51.208;4.432;2024-01-16T13:08:02;4.30;99.90
25300;DHT22;13241;51.208;4.432;2024-01-16T13:10:32;4.30;99.90
25300;DHT22;13241;51.208;4.432;2024-01-16T13:13:15;4.20;99.90
25300;DHT22;13241;51.208;4.432;2024-01-16T13:15:44;4.10;99.90
25300;DHT22;13241;51.208;4.432;2024-01-16T13:18:21;4.10;99.90
25300;DHT22;13241;51.208;4.432;2024-01-16T13:20:54;4.10;99.90
25300;DHT22;13241;51.208;4.432;2024-01-16T13:23:22;4.20;99.90
25300;DHT22;13241;51.208;4.432;2024-01-16T13:25:49;4.30;99.90
25300;DHT22;13241;51.208;4.432;2024-01-16T13:28:18;4.30;99.90
25300;DHT22;13241;51.208;4.432;2024-01-16T13:30:49;4.30;99.90
25300;DHT22;13241;51.208;4.432;2024-01-16T13:33:16;4.40;99.90
25300;DHT22;13241;51.208;4.432;2024-01-16T13:35:46;4.40;99.90
25300;DHT22;13241;51.208;4.432;2024-01-16T13:38:15;4.50;99.90
25300;DHT22;13241;51.208;4.432;2024-01-16T13:40:46;4.50;99.90
25300;DHT22;13241;51.208;4.432;2024-01-16T13:43:13;4.50;99.90
25300;DHT22;13241;51.208;4.432;2024-01-16T13:45:40;4.50;99.90
25300;DHT22;13241;51.208;4.432;2024-01-16T13:48:08;4.50;99.90
25300;DHT22;13241;51.208;4.432;2024-01-16T13:50:36;4.40;99.90
25300;DHT22;13241;51.208;4.432;2024-01-16T13:53:03;4.30;99.90
25300;DHT22;13241;51.208;4.432;2024-01-16T13:55:30;4.30;99.90
25300;DHT22;13241;51.208;4.432;2024-01-16T13:57:59;4.30;99.90
25300;DHT22;13241;51.208;4.432;2024-01-16T14:00:26;4.20;99.90
25300;DHT22;13241;51.208;4.432;2024-01-16T14:02:53;4.20;99.90
25300;DHT22;13241;51.208;4.432;2024-01-16T14:05:21;4.20;99.90
25300;DHT22;13241;51.208;4.432;2024-01-16T14:07:50;4.10;99.90
25300;DHT22;13241;51.208;4.432;2024-01-16T14:10:21;4.20;99.90
25300;DHT22;13241;51.208;4.432;2024-01-16T14:12:49;4.10;99.90
25300;DHT22;13241;51.208;4.432;2024-01-16T14:15:19;4.40;99.90
25300;DHT22;13241;51.208;4.432;2024-01-16T14:17:50;4.30;99.90
25300;DHT22;13241;51.208;4.432;2024-01-16T14:20:18;4.50;99.90
25300;DHT22;13241;51.208;4.432;2024-01-16T14:22:53;4.60;99.90
25300;DHT22;13241;51.208;4.432;2024-01-16T14:25:20;4.70;99.90
25300;DHT22;13241;51.208;4.432;2024-01-16T14:27:58;4.60;99.90
25300;DHT22;13241;51.208;4.432;2024-01-16T14:30:27;4.70;99.90
25300;DHT22;13241;51.208;4.432;2024-01-16T14:32:55;5.10;99.90
25300;DHT22;13241;51.208;4.432;2024-01-16T14:35:23;5.20;99.90
25300;DHT22;13241;51.208;4.432;2024-01-16T14:37:51;5.40;99.90
25300;DHT22;13241;51.208;4.432;2024-01-16T14:40:19;5.60;99.90
25300;DHT22;13241;51.208;4.432;2024-01-16T14:42:53;6.00;99.90
25300;DHT22;13241;51.208;4.432;2024-01-16T14:45:21;6.40;99.90
25300;DHT22;13241;51.208;4.432;2024-01-16T14:47:48;6.70;99.90
25300;DHT22;13241;51.208;4.432;2024-01-16T14:50:17;7.00;99.90
25300;DHT22;13241;51.208;4.432;2024-01-16T14:52:45;7.40;99.90
25300;DHT22;13241;51.208;4.432;2024-01-16T14:55:15;7.50;99.90
25300;DHT22;13241;51.208;4.432;2024-01-16T14:57:43;7.20;99.90
25300;DHT22;13241;51.208;4.432;2024-01-16T15:00:13;6.70;99.90
25300;DHT22;13241;51.208;4.432;2024-01-16T15:02:47;6.10;99.90
25300;DHT22;13241;51.208;4.432;2024-01-16T15:05:18;5.50;99.90
25300;DHT22;13241;51.208;4.432;2024-01-16T15:07:47;5.00;99.90
25300;DHT22;13241;51.208;4.432;2024-01-16T15:10:14;4.70;99.90
25300;DHT22;13241;51.208;4.432;2024-01-16T15:12:47;4.50;99.90
25300;DHT22;13241;51.208;4.432;2024-01-16T15:15:17;4.20;99.90
25300;DHT22;13241;51.208;4.432;2024-01-16T15:17:44;4.10;99.90
25300;DHT22;13241;51.208;4.432;2024-01-16T15:20:14;4.00;99.90
25300;DHT22;13241;51.208;4.432;2024-01-16T15:22:43;3.80;99.90
25300;DHT22;13241;51.208;4.432;2024-01-16T15:25:15;3.80;99.90
25300;DHT22;13241;51.208;4.432;2024-01-16T15:27:43;3.70;99.90
25300;DHT22;13241;51.208;4.432;2024-01-16T15:30:12;3.70;99.90
25300;DHT22;13241;51.208;4.432;2024-01-16T15:32:42;3.70;99.90
25300;DHT22;13241;51.208;4.432;2024-01-16T15:35:09;3.50;99.90
25300;DHT22;13241;51.208;4.432;2024-01-16T15:37:38;3.50;99.90
25300;DHT22;13241;51.208;4.432;2024-01-16T15:40:05;3.40;99.90
25300;DHT22;13241;51.208;4.432;2024-01-16T15:42:33;3.40;99.90
25300;DHT22;13241;51.208;4.432;2024-01-16T15:45:05;3.30;99.90
25300;DHT22;13241;51.208;4.432;2024-01-16T15:47:38;3.20;99.90
25300;DHT22;13241;51.208;4.432;2024-01-16T15:50:07;3.20;99.90
25300;DHT22;13241;51.208;4.432;2024-01-16T15:52:37;3.10;99.90
25300;DHT22;13241;51.208;4.432;2024-01-16T15:55:10;3.10;99.90
25300;DHT22;13241;51.208;4.432;2024-01-16T15:57:43;2.70;99.90
25300;DHT22;13241;51.208;4.432;2024-01-16T16:00:11;3.00;99.90
25300;DHT22;13241;51.208;4.432;2024-01-16T16:02:38;2.90;99.90
25300;DHT22;13241;51.208;4.432;2024-01-16T16:05:06;2.90;99.90
25300;DHT22;13241;51.208;4.432;2024-01-16T16:07:34;2.80;99.90
25300;DHT22;13241;51.208;4.432;2024-01-16T16:10:00;2.80;99.90
25300;DHT22;13241;51.208;4.432;2024-01-16T16:12:31;2.70;99.90
25300;DHT22;13241;51.208;4.432;2024-01-16T16:14:58;2.70;99.90
25300;DHT22;13241;51.208;4.432;2024-01-16T16:17:25;2.60;99.90
25300;DHT22;13241;51.208;4.432;2024-01-16T16:19:52;2.60;99.90
25300;DHT22;13241;51.208;4.432;2024-01-16T16:22:19;2.60;99.90
25300;DHT22;13241;51.208;4.432;2024-01-16T16:24:46;2.60;99.90
25300;DHT22;13241;51.208;4.432;2024-01-16T16:27:23;2.60;99.90
25300;DHT22;13241;51.208;4.432;2024-01-16T16:29:55;2.50;99.90
25300;DHT22;13241;51.208;4.432;2024-01-16T16:32:23;2.50;99.90
25300;DHT22;13241;51.208;4.432;2024-01-16T16:34:50;2.50;99.90
25300;DHT22;13241;51.208;4.432;2024-01-16T16:37:18;2.50;99.90
25300;DHT22;13241;51.208;4.432;2024-01-16T16:39:45;2.50;99.90
25300;DHT22;13241;51.208;4.432;2024-01-16T16:42:12;2.50;99.90
25300;DHT22;13241;51.208;4.432;2024-01-16T16:44:39;2.40;99.90
25300;DHT22;13241;51.208;4.432;2024-01-16T16:47:07;2.40;99.90
25300;DHT22;13241;51.208;4.432;2024-01-16T16:49:35;2.40;99.90
25300;DHT22;13241;51.208;4.432;2024-01-16T16:52:03;2.30;99.90
25300;DHT22;13241;51.208;4.432;2024-01-16T16:54:30;2.40;99.90